createdAt,value
2018-05-29T00:00:38.233Z,99.99
2018-05-29T00:01:38.245Z,99.99
2018-05-29T00:02:38.265Z,99.99
2018-05-29T00:03:38.279Z,99.99
2018-05-29T00:04:38.292Z,99.99
2018-05-29T00:05:38.308Z,99.99
2018-05-29T00:06:38.320Z,99.99
2018-05-29T00:07:38.337Z,99.99
2018-05-29T00:08:38.352Z,99.99
2018-05-29T00:09:38.367Z,99.99
2018-05-29T00:10:38.383Z,99.99
2018-05-29T00:11:38.398Z,99.99
2018-05-29T00:12:38.413Z,99.99
2018-05-29T00:13:38.430Z,99.99
2018-05-29T00:14:38.445Z,99.99
2018-05-29T00:15:38.458Z,99.99
2018-05-29T00:16:38.474Z,99.99
2018-05-29T00:17:38.489Z,99.99
2018-05-29T00:18:38.504Z,99.99
2018-05-29T00:19:38.520Z,99.99
2018-05-29T00:20:38.533Z,99.99
2018-05-29T00:21:38.552Z,99.99
2018-05-29T00:22:38.564Z,99.99
2018-05-29T00:23:38.581Z,99.99
2018-05-29T00:24:38.594Z,99.99
2018-05-29T00:25:38.608Z,99.99
2018-05-29T00:26:38.624Z,99.99
2018-05-29T00:27:38.639Z,99.99
2018-05-29T00:28:38.654Z,99.99
2018-05-29T00:29:38.669Z,99.99
2018-05-29T00:30:38.683Z,99.99
2018-05-29T00:31:38.698Z,99.99
2018-05-29T00:32:38.714Z,99.99
2018-05-29T00:33:38.728Z,99.99
2018-05-29T00:34:38.742Z,99.99
2018-05-29T00:35:38.760Z,99.99
2018-05-29T00:36:38.777Z,99.99
2018-05-29T00:37:38.788Z,99.99
2018-05-29T00:38:38.803Z,99.99
2018-05-29T00:39:38.825Z,99.99
2018-05-29T00:40:38.837Z,99.99
2018-05-29T00:41:38.849Z,99.99
2018-05-29T00:42:38.870Z,99.99
2018-05-29T00:43:38.878Z,99.99
2018-05-29T00:44:38.895Z,99.99
2018-05-29T00:45:38.908Z,99.99
2018-05-29T00:46:38.921Z,99.99
2018-05-29T00:47:38.938Z,99.99
2018-05-29T00:48:38.955Z,99.99
2018-05-29T00:49:38.968Z,99.99
2018-05-29T00:50:38.985Z,99.99
2018-05-29T00:51:38.999Z,99.99
2018-05-29T00:52:39.015Z,99.99
2018-05-29T00:53:39.031Z,99.99
2018-05-29T00:54:39.043Z,99.99
2018-05-29T00:55:39.057Z,99.99
2018-05-29T00:56:39.072Z,99.99
2018-05-29T00:57:39.087Z,99.99
2018-05-29T00:58:39.101Z,99.99
2018-05-29T00:59:39.115Z,99.99
2018-05-29T01:00:39.133Z,99.99
2018-05-29T01:01:39.156Z,99.99
2018-05-29T01:02:39.160Z,99.99
2018-05-29T01:03:39.174Z,96.60
2018-05-29T01:04:39.190Z,93.93
2018-05-29T01:05:39.204Z,91.79
2018-05-29T01:06:39.219Z,89.32
2018-05-29T01:07:39.235Z,86.36
2018-05-29T01:08:39.248Z,89.13
2018-05-29T01:09:39.266Z,88.18
2018-05-29T01:10:39.277Z,91.79
2018-05-29T01:11:39.297Z,89.89
2018-05-29T01:12:39.336Z,86.08
2018-05-29T01:13:39.323Z,84.17
2018-05-29T01:14:39.335Z,83.03
2018-05-29T01:15:39.351Z,81.13
2018-05-29T01:16:39.365Z,84.08
2018-05-29T01:17:39.379Z,81.98
2018-05-29T01:18:39.392Z,79.60
2018-05-29T01:19:39.407Z,79.99
2018-05-29T01:20:39.424Z,81.32
2018-05-29T01:21:39.437Z,82.84
2018-05-29T01:22:39.451Z,83.61
2018-05-29T01:23:39.467Z,83.22
2018-05-29T01:24:39.478Z,82.75
2018-05-29T01:25:39.493Z,82.08
2018-05-29T01:26:39.506Z,81.70
2018-05-29T01:27:39.520Z,85.80
2018-05-29T01:28:39.534Z,88.93
2018-05-29T01:29:39.551Z,83.61
2018-05-29T01:30:39.563Z,87.03
2018-05-29T01:31:39.576Z,84.46
2018-05-29T01:32:39.591Z,82.65
2018-05-29T01:33:39.605Z,84.56
2018-05-29T01:34:39.617Z,89.13
2018-05-29T01:35:39.635Z,85.32
2018-05-29T01:36:39.649Z,90.56
2018-05-29T01:37:39.663Z,87.70
2018-05-29T01:38:39.676Z,89.89
2018-05-29T01:39:39.688Z,85.89
2018-05-29T01:40:39.701Z,87.13
2018-05-29T01:41:39.718Z,90.46
2018-05-29T01:42:39.737Z,91.99
2018-05-29T01:43:39.745Z,91.41
2018-05-29T01:44:39.758Z,91.13
2018-05-29T01:45:39.775Z,91.60
2018-05-29T01:46:39.790Z,95.12
2018-05-29T01:47:39.803Z,91.22
2018-05-29T01:48:39.815Z,94.84
2018-05-29T01:49:39.831Z,96.17
2018-05-29T01:50:39.845Z,92.74
2018-05-29T01:51:39.863Z,92.94
2018-05-29T01:52:39.871Z,93.98
2018-05-29T01:53:39.888Z,88.65
2018-05-29T01:54:39.902Z,88.75
2018-05-29T01:55:39.917Z,85.89
2018-05-29T01:56:39.935Z,84.27
2018-05-29T01:57:39.945Z,83.32
2018-05-29T01:58:39.958Z,84.08
2018-05-29T01:59:39.971Z,84.56
2018-05-29T02:00:39.986Z,86.36
2018-05-29T02:01:40.002Z,86.36
2018-05-29T02:02:40.015Z,86.27
2018-05-29T02:03:40.028Z,88.56
2018-05-29T02:04:40.043Z,89.41
2018-05-29T02:05:40.060Z,87.60
2018-05-29T02:06:40.073Z,87.03
2018-05-29T02:07:40.088Z,91.13
2018-05-29T02:08:40.103Z,91.31
2018-05-29T02:09:40.114Z,91.89
2018-05-29T02:10:40.132Z,94.08
2018-05-29T02:11:40.140Z,93.89
2018-05-29T02:12:40.156Z,91.13
2018-05-29T02:13:40.169Z,92.36
2018-05-29T02:14:40.182Z,94.27
2018-05-29T02:15:40.198Z,89.98
2018-05-29T02:16:40.213Z,85.89
2018-05-29T02:17:40.227Z,83.41
2018-05-29T02:18:40.239Z,86.18
2018-05-29T02:19:40.254Z,84.27
2018-05-29T02:20:40.271Z,84.27
2018-05-29T02:21:40.284Z,85.70
2018-05-29T02:22:40.296Z,83.41
2018-05-29T02:23:40.313Z,75.89
2018-05-29T02:24:40.329Z,68.90
2018-05-29T02:25:40.339Z,64.90
2018-05-29T02:26:40.353Z,55.87
2018-05-29T02:27:40.370Z,43.97
2018-05-29T02:28:40.382Z,37.38
2018-05-29T02:29:40.399Z,32.91
2018-05-29T02:30:40.410Z,29.01
2018-05-29T02:31:40.424Z,29.39
2018-05-29T02:32:40.440Z,29.01
2018-05-29T02:33:40.453Z,29.01
2018-05-29T02:34:40.469Z,27.78
2018-05-29T02:35:40.480Z,27.49
2018-05-29T02:36:40.493Z,26.82
2018-05-29T02:37:40.511Z,28.25
2018-05-29T02:38:40.523Z,31.10
2018-05-29T02:39:40.535Z,33.86
2018-05-29T02:40:40.548Z,34.05
2018-05-29T02:41:40.565Z,33.10
2018-05-29T02:42:40.575Z,37.29
2018-05-29T02:43:40.591Z,34.05
2018-05-29T02:44:40.603Z,35.38
2018-05-29T02:45:40.616Z,36.05
2018-05-29T02:46:40.629Z,37.29
2018-05-29T02:47:40.650Z,41.38
2018-05-29T02:48:40.656Z,37.67
2018-05-29T02:49:40.671Z,39.48
2018-05-29T02:50:40.683Z,41.38
2018-05-29T02:51:40.696Z,42.71
2018-05-29T02:52:40.712Z,45.09
2018-05-29T02:53:40.723Z,49.27
2018-05-29T02:54:40.738Z,49.75
2018-05-29T02:55:40.750Z,43.59
2018-05-29T02:56:40.766Z,42.90
2018-05-29T02:57:40.778Z,44.42
2018-05-29T02:58:40.790Z,45.00
2018-05-29T02:59:40.805Z,43.78
2018-05-29T03:00:40.818Z,47.37
2018-05-29T03:01:40.832Z,50.25
2018-05-29T03:02:40.845Z,52.25
2018-05-29T03:03:40.858Z,56.53
2018-05-29T03:04:40.872Z,55.29
2018-05-29T03:05:40.887Z,54.06
2018-05-29T03:06:40.898Z,54.25
2018-05-29T03:07:40.915Z,55.39
2018-05-29T03:08:40.925Z,54.44
2018-05-29T03:09:40.941Z,56.53
2018-05-29T03:10:40.954Z,52.06
2018-05-29T03:11:40.966Z,55.20
2018-05-29T03:12:40.980Z,58.44
2018-05-29T03:13:40.998Z,55.87
2018-05-29T03:14:41.007Z,46.63
2018-05-29T03:15:41.021Z,42.14
2018-05-29T03:16:41.034Z,39.57
2018-05-29T03:17:41.049Z,38.90
2018-05-29T03:18:41.061Z,36.43
2018-05-29T03:19:41.075Z,37.38
2018-05-29T03:20:41.087Z,38.43
2018-05-29T03:21:41.103Z,40.81
2018-05-29T03:22:41.116Z,42.33
2018-05-29T03:23:41.129Z,42.04
2018-05-29T03:24:41.146Z,46.14
2018-05-29T03:25:41.160Z,47.58
2018-05-29T03:26:41.171Z,46.54
2018-05-29T03:27:41.184Z,50.35
2018-05-29T03:28:41.198Z,53.49
2018-05-29T03:29:41.211Z,59.77
2018-05-29T03:30:41.226Z,57.87
2018-05-29T03:31:41.243Z,61.48
2018-05-29T03:32:41.250Z,63.20
2018-05-29T03:33:41.268Z,63.20
2018-05-29T03:34:41.278Z,60.15
2018-05-29T03:35:41.292Z,63.67
2018-05-29T03:36:41.306Z,64.05
2018-05-29T03:37:41.323Z,67.00
2018-05-29T03:38:41.334Z,54.69
2018-05-29T03:39:41.348Z,54.13
2018-05-29T03:40:41.362Z,47.85
2018-05-29T03:41:41.375Z,49.65
2018-05-29T03:42:41.388Z,50.60
2018-05-29T03:43:41.401Z,52.51
2018-05-29T03:44:41.414Z,51.84
2018-05-29T03:45:41.427Z,54.13
2018-05-29T03:46:41.444Z,51.84
2018-05-29T03:47:41.456Z,50.32
2018-05-29T03:48:41.470Z,56.51
2018-05-29T03:49:41.482Z,59.74
2018-05-29T03:50:41.500Z,63.83
2018-05-29T03:51:41.515Z,66.49
2018-05-29T03:52:41.524Z,69.06
2018-05-29T03:53:41.536Z,69.54
2018-05-29T03:54:41.555Z,72.77
2018-05-29T03:55:41.567Z,68.21
2018-05-29T03:56:41.582Z,66.20
2018-05-29T03:57:41.592Z,59.27
2018-05-29T03:58:41.605Z,59.83
2018-05-29T03:59:41.617Z,61.48
2018-05-29T04:00:41.631Z,61.10
2018-05-29T04:01:41.644Z,65.00
2018-05-29T04:02:41.661Z,65.06
2018-05-29T04:03:41.672Z,66.33
2018-05-29T04:04:41.685Z,66.33
2018-05-29T04:05:41.701Z,70.90
2018-05-29T04:06:41.711Z,65.10
2018-05-29T04:07:41.725Z,40.92
2018-05-29T04:08:41.738Z,36.24
2018-05-29T04:09:41.753Z,40.14
2018-05-29T04:10:41.769Z,38.43
2018-05-29T04:11:41.780Z,38.71
2018-05-29T04:12:41.795Z,35.29
2018-05-29T04:13:41.807Z,38.81
2018-05-29T04:14:41.826Z,38.90
2018-05-29T04:15:41.838Z,41.95
2018-05-29T04:16:41.847Z,40.64
2018-05-29T04:17:41.860Z,46.04
2018-05-29T04:18:41.873Z,50.23
2018-05-29T04:19:41.894Z,50.92
2018-05-29T04:20:41.901Z,53.20
2018-05-29T04:21:41.916Z,55.01
2018-05-29T04:22:41.930Z,56.98
2018-05-29T04:23:41.939Z,55.83
2018-05-29T04:24:41.955Z,55.74
2018-05-29T04:25:41.971Z,58.50
2018-05-29T04:26:41.981Z,57.17
2018-05-29T04:27:41.995Z,57.87
2018-05-29T04:28:42.010Z,57.87
2018-05-29T04:29:42.022Z,62.24
2018-05-29T04:30:42.034Z,66.81
2018-05-29T04:31:42.049Z,68.52
2018-05-29T04:32:42.061Z,73.28
2018-05-29T04:33:42.076Z,72.24
2018-05-29T04:34:42.088Z,66.62
2018-05-29T04:35:42.101Z,63.57
2018-05-29T04:36:42.115Z,64.34
2018-05-29T04:37:42.130Z,66.24
2018-05-29T04:38:42.142Z,63.10
2018-05-29T04:39:42.155Z,57.48
2018-05-29T04:40:42.173Z,57.96
2018-05-29T04:41:42.184Z,53.77
2018-05-29T04:42:42.196Z,50.35
2018-05-29T04:43:42.270Z,50.82
2018-05-29T04:44:42.225Z,41.88
2018-05-29T04:45:42.236Z,37.88
2018-05-29T04:46:42.251Z,38.07
2018-05-29T04:47:42.262Z,42.25
2018-05-29T04:48:42.276Z,41.30
2018-05-29T04:49:42.343Z,48.06
2018-05-29T04:50:42.305Z,46.35
2018-05-29T04:51:42.316Z,45.49
2018-05-29T04:52:42.338Z,39.97
2018-05-29T04:53:42.346Z,33.12
2018-05-29T04:54:42.357Z,29.49
2018-05-29T04:55:42.371Z,21.31
2018-05-29T04:56:42.385Z,23.02
2018-05-29T04:57:42.399Z,20.73
2018-05-29T04:58:42.411Z,16.64
2018-05-29T04:59:42.429Z,17.97
2018-05-29T05:00:42.441Z,19.59
2018-05-29T05:01:42.453Z,20.54
2018-05-29T05:02:42.466Z,30.91
2018-05-29T05:03:42.479Z,41.38
2018-05-29T05:04:42.492Z,23.40
2018-05-29T05:05:42.505Z,19.21
2018-05-29T05:06:42.520Z,11.32
2018-05-29T05:07:42.534Z,10.56
2018-05-29T05:08:42.546Z,9.51
2018-05-29T05:09:42.558Z,8.65
2018-05-29T05:10:42.572Z,3.61
2018-05-29T05:11:42.585Z,2.94
2018-05-29T05:12:42.602Z,2.19
2018-05-29T05:13:42.612Z,0.00
2018-05-29T05:14:42.623Z,0.00
2018-05-29T05:15:42.638Z,0.00
2018-05-29T05:16:42.653Z,0.00
2018-05-29T05:17:42.664Z,0.00
2018-05-29T05:18:42.675Z,0.00
2018-05-29T05:19:42.692Z,0.00
2018-05-29T05:20:42.706Z,0.00
2018-05-29T05:21:42.717Z,0.00
2018-05-29T05:22:42.729Z,0.00
2018-05-29T05:23:42.741Z,0.00
2018-05-29T05:24:42.755Z,0.00
2018-05-29T05:25:42.769Z,0.00
2018-05-29T05:26:42.778Z,0.00
2018-05-29T05:27:42.798Z,0.00
2018-05-29T05:28:42.806Z,0.95
2018-05-29T05:29:42.823Z,3.33
2018-05-29T05:30:42.829Z,3.90
2018-05-29T05:31:42.844Z,7.32
2018-05-29T05:32:42.856Z,14.74
2018-05-29T05:33:42.870Z,19.69
2018-05-29T05:34:42.882Z,22.06
2018-05-29T05:35:42.894Z,21.31
2018-05-29T05:36:42.909Z,16.36
2018-05-29T05:37:42.921Z,13.70
2018-05-29T05:38:42.937Z,17.22
2018-05-29T05:39:42.947Z,22.35
2018-05-29T05:40:42.963Z,34.17
2018-05-29T05:41:42.978Z,38.54
2018-05-29T05:42:42.986Z,37.88
2018-05-29T05:43:43.000Z,43.21
2018-05-29T05:44:43.012Z,35.69
2018-05-29T05:45:43.026Z,47.18
2018-05-29T05:46:43.038Z,43.38
2018-05-29T05:47:43.053Z,17.41
2018-05-29T05:48:43.064Z,37.10
2018-05-29T05:49:43.080Z,47.85
2018-05-29T05:50:43.092Z,50.60
2018-05-29T05:51:43.105Z,42.83
2018-05-29T05:52:43.155Z,42.44
2018-05-29T05:53:43.131Z,30.93
2018-05-29T05:54:43.143Z,36.74
2018-05-29T05:55:43.157Z,40.16
2018-05-29T05:56:43.169Z,59.39
2018-05-29T05:57:43.187Z,53.96
2018-05-29T05:58:43.196Z,52.06
2018-05-29T05:59:43.210Z,39.31
2018-05-29T06:00:43.223Z,37.40
2018-05-29T06:01:43.235Z,21.41
2018-05-29T06:02:43.247Z,14.37
2018-05-29T06:03:43.261Z,11.32
2018-05-29T06:04:43.274Z,4.85
2018-05-29T06:05:43.287Z,1.81
2018-05-29T06:06:43.301Z,3.80
2018-05-29T06:07:43.324Z,4.85
2018-05-29T06:08:43.326Z,6.37
2018-05-29T06:09:43.350Z,16.75
2018-05-29T06:10:43.359Z,21.22
2018-05-29T06:11:43.368Z,21.70
2018-05-29T06:12:43.382Z,24.74
2018-05-29T06:13:43.392Z,27.60
2018-05-29T06:14:43.406Z,33.88
2018-05-29T06:15:43.417Z,49.20
2018-05-29T06:16:43.434Z,57.80
2018-05-29T06:17:43.448Z,57.51
2018-05-29T06:18:43.461Z,62.85
2018-05-29T06:19:43.474Z,63.04
2018-05-29T06:20:43.486Z,69.70
2018-05-29T06:21:43.499Z,66.37
2018-05-29T06:22:43.514Z,83.89
2018-05-29T06:23:43.525Z,83.89
2018-05-29T06:24:43.539Z,91.46
2018-05-29T06:25:43.553Z,92.55
2018-05-29T06:26:43.566Z,94.37
2018-05-29T06:27:43.583Z,60.69
2018-05-29T06:28:43.594Z,55.35
2018-05-29T06:29:43.608Z,84.98
2018-05-29T06:30:43.619Z,99.55
2018-05-29T06:31:43.635Z,99.99
2018-05-29T06:32:43.701Z,99.99
2018-05-29T06:33:43.674Z,82.12
2018-05-29T06:34:43.675Z,80.98
2018-05-29T06:35:43.689Z,78.78
2018-05-29T06:36:43.704Z,71.93
2018-05-29T06:37:43.717Z,50.40
2018-05-29T06:38:43.788Z,36.49
2018-05-29T06:39:43.743Z,43.54
2018-05-29T06:40:43.756Z,52.87
2018-05-29T06:41:43.772Z,54.97
2018-05-29T06:42:43.784Z,60.52
2018-05-29T06:43:43.848Z,74.82
2018-05-29T06:44:43.813Z,61.16
2018-05-29T06:45:43.825Z,36.68
2018-05-29T06:46:43.841Z,45.92
2018-05-29T06:47:43.855Z,72.82
2018-05-29T06:48:43.870Z,83.45
2018-05-29T06:49:43.882Z,88.51
2018-05-29T06:50:43.897Z,63.92
2018-05-29T06:51:43.910Z,37.23
2018-05-29T06:52:43.925Z,19.33
2018-05-29T06:53:43.941Z,25.99
2018-05-29T06:54:43.954Z,31.61
2018-05-29T06:55:43.966Z,21.23
2018-05-29T06:56:43.981Z,16.95
2018-05-29T06:57:44.014Z,24.09
2018-05-29T06:58:44.007Z,43.23
2018-05-29T06:59:44.022Z,28.47
2018-05-29T07:00:44.042Z,24.29
2018-05-29T07:01:44.051Z,27.06
2018-05-29T07:02:44.065Z,12.67
2018-05-29T07:03:44.078Z,23.24
2018-05-29T07:04:44.092Z,40.87
2018-05-29T07:05:44.105Z,61.22
2018-05-29T07:06:44.119Z,42.08
2018-05-29T07:07:44.132Z,39.90
2018-05-29T07:08:44.147Z,30.85
2018-05-29T07:09:44.160Z,36.37
2018-05-29T07:10:44.172Z,46.28
2018-05-29T07:11:44.189Z,61.93
2018-05-29T07:12:44.202Z,61.25
2018-05-29T07:13:44.217Z,19.53
2018-05-29T07:14:44.229Z,57.92
2018-05-29T07:15:44.243Z,70.59
2018-05-29T07:16:44.258Z,79.64
2018-05-29T07:17:44.273Z,82.31
2018-05-29T07:18:44.288Z,86.79
2018-05-29T07:19:44.299Z,86.22
2018-05-29T07:20:44.312Z,78.59
2018-05-29T07:21:44.328Z,87.17
2018-05-29T07:22:44.339Z,93.27
2018-05-29T07:23:44.355Z,69.35
2018-05-29T07:24:44.410Z,78.31
2018-05-29T07:25:44.382Z,80.88
2018-05-29T07:26:44.396Z,65.55
2018-05-29T07:27:44.411Z,61.16
2018-05-29T07:28:44.428Z,54.02
2018-05-29T07:29:44.441Z,60.40
2018-05-29T07:30:44.453Z,45.54
2018-05-29T07:31:44.468Z,68.88
2018-05-29T07:32:44.481Z,65.36
2018-05-29T07:33:44.494Z,43.84
2018-05-29T07:34:44.517Z,74.63
2018-05-29T07:35:44.522Z,84.92
2018-05-29T07:36:44.538Z,70.82
2018-05-29T07:37:44.553Z,75.40
2018-05-29T07:38:44.565Z,73.36
2018-05-29T07:39:44.592Z,66.24
2018-05-29T07:40:44.590Z,56.24
2018-05-29T07:41:44.613Z,75.87
2018-05-29T07:42:44.620Z,78.44
2018-05-29T07:43:44.635Z,81.59
2018-05-29T07:44:44.649Z,79.02
2018-05-29T07:45:44.663Z,88.74
2018-05-29T07:46:44.675Z,90.45
2018-05-29T07:47:44.693Z,92.93
2018-05-29T07:48:44.705Z,88.07
2018-05-29T07:49:44.723Z,86.65
2018-05-29T07:50:44.736Z,99.70
2018-05-29T07:51:44.748Z,87.40
2018-05-29T07:52:44.763Z,98.13
2018-05-29T07:53:44.777Z,75.64
2018-05-29T07:54:44.789Z,54.80
2018-05-29T07:55:44.806Z,61.57
2018-05-29T07:56:44.818Z,69.10
2018-05-29T07:57:44.832Z,64.85
2018-05-29T07:58:44.881Z,43.49
2018-05-29T07:59:44.862Z,86.69
2018-05-29T08:00:44.875Z,99.99
2018-05-29T08:01:44.893Z,60.84
2018-05-29T08:02:44.904Z,79.82
2018-05-29T08:03:44.919Z,96.51
2018-05-29T08:04:44.932Z,89.07
2018-05-29T08:05:44.947Z,99.99
2018-05-29T08:06:45.012Z,68.85
2018-05-29T08:07:44.981Z,99.99
2018-05-29T08:08:44.990Z,95.84
2018-05-29T08:09:45.007Z,70.47
2018-05-29T08:10:45.018Z,84.78
2018-05-29T08:11:45.037Z,99.99
2018-05-29T08:12:45.048Z,88.69
2018-05-29T08:13:45.061Z,99.99
2018-05-29T08:14:45.076Z,78.86
2018-05-29T08:15:45.090Z,99.99
2018-05-29T08:16:45.105Z,99.99
2018-05-29T08:17:45.120Z,99.99
2018-05-29T08:18:45.134Z,99.99
2018-05-29T08:19:45.147Z,99.99
2018-05-29T08:20:45.164Z,99.99
2018-05-29T08:21:45.177Z,99.99
2018-05-29T08:22:45.192Z,99.99
2018-05-29T08:23:45.208Z,99.99
2018-05-29T08:24:45.221Z,99.99
2018-05-29T08:25:45.235Z,90.83
2018-05-29T08:26:45.250Z,85.01
2018-05-29T08:27:45.266Z,88.07
2018-05-29T08:28:45.279Z,99.99
2018-05-29T08:29:45.295Z,97.08
2018-05-29T08:30:45.309Z,78.77
2018-05-29T08:31:45.326Z,82.40
2018-05-29T08:32:45.339Z,82.20
2018-05-29T08:33:45.354Z,80.83
2018-05-29T08:34:45.370Z,53.95
2018-05-29T08:35:45.382Z,65.52
2018-05-29T08:36:45.398Z,77.15
2018-05-29T08:37:45.414Z,74.48
2018-05-29T08:38:45.430Z,76.86
2018-05-29T08:39:45.560Z,65.07
2018-05-29T08:40:45.458Z,84.53
2018-05-29T08:41:45.472Z,93.31
2018-05-29T08:42:45.485Z,95.41
2018-05-29T08:43:45.502Z,89.40
2018-05-29T08:44:45.516Z,79.57
2018-05-29T08:45:45.530Z,91.78
2018-05-29T08:46:45.544Z,99.99
2018-05-29T08:47:45.561Z,84.11
2018-05-29T08:48:45.576Z,76.10
2018-05-29T08:49:45.590Z,99.99
2018-05-29T08:50:45.604Z,67.23
2018-05-29T08:51:45.619Z,81.77
2018-05-29T08:52:45.635Z,75.37
2018-05-29T08:53:45.650Z,99.90
2018-05-29T08:54:45.664Z,70.92
2018-05-29T08:55:45.680Z,77.13
2018-05-29T08:56:45.749Z,95.84
2018-05-29T08:57:45.710Z,71.98
2018-05-29T08:58:45.724Z,78.85
2018-05-29T08:59:45.740Z,73.03
2018-05-29T09:00:45.754Z,93.79
2018-05-29T09:01:45.770Z,80.32
2018-05-29T09:02:45.784Z,90.73
2018-05-29T09:03:45.799Z,95.32
2018-05-29T09:04:45.815Z,86.58
2018-05-29T09:05:45.830Z,90.11
2018-05-29T09:06:45.844Z,99.99
2018-05-29T09:07:45.859Z,99.99
2018-05-29T09:08:45.878Z,99.99
2018-05-29T09:09:45.891Z,99.99
2018-05-29T09:10:45.905Z,99.99
2018-05-29T09:11:45.924Z,99.52
2018-05-29T09:12:45.936Z,89.97
2018-05-29T09:13:45.951Z,99.99
2018-05-29T09:14:45.966Z,99.99
2018-05-29T09:15:45.984Z,88.83
2018-05-29T09:16:45.997Z,87.68
2018-05-29T09:17:46.015Z,99.99
2018-05-29T09:18:46.028Z,99.23
2018-05-29T09:19:46.043Z,97.03
2018-05-29T09:20:46.058Z,99.99
2018-05-29T09:21:46.073Z,99.99
2018-05-29T09:22:46.091Z,99.99
2018-05-29T09:23:46.102Z,99.99
2018-05-29T09:24:46.121Z,99.99
2018-05-29T09:25:46.135Z,99.99
2018-05-29T09:26:46.149Z,99.99
2018-05-29T09:27:46.166Z,65.83
2018-05-29T09:28:46.180Z,92.93
2018-05-29T09:29:46.277Z,98.18
2018-05-29T09:30:46.215Z,99.66
2018-05-29T09:31:46.225Z,99.99
2018-05-29T09:32:46.243Z,99.99
2018-05-29T09:33:46.257Z,99.99
2018-05-29T09:34:46.273Z,99.99
2018-05-29T09:35:46.287Z,99.99
2018-05-29T09:36:46.303Z,99.99
2018-05-29T09:37:46.317Z,97.66
2018-05-29T09:38:46.332Z,99.99
2018-05-29T09:39:46.349Z,99.99
2018-05-29T09:40:46.368Z,99.99
2018-05-29T09:41:46.380Z,99.99
2018-05-29T09:42:46.396Z,99.99
2018-05-29T09:43:46.411Z,99.99
2018-05-29T09:44:46.480Z,89.92
2018-05-29T09:45:46.452Z,98.37
2018-05-29T09:46:46.457Z,99.99
2018-05-29T09:47:46.472Z,99.99
2018-05-29T09:48:46.488Z,99.99
2018-05-29T09:49:46.503Z,99.99
2018-05-29T09:50:46.519Z,99.99
2018-05-29T09:51:46.534Z,99.99
2018-05-29T09:52:46.581Z,99.99
2018-05-29T09:53:46.567Z,99.99
2018-05-29T09:54:46.580Z,99.99
2018-05-29T09:55:46.596Z,93.07
2018-05-29T09:56:46.613Z,99.99
2018-05-29T09:57:46.630Z,91.45
2018-05-29T09:58:46.645Z,99.99
2018-05-29T09:59:46.658Z,99.99
2018-05-29T10:00:46.677Z,99.99
2018-05-29T10:01:46.691Z,99.99
2018-05-29T10:02:46.705Z,99.99
2018-05-29T10:03:46.721Z,89.35
2018-05-29T10:04:46.738Z,99.99
2018-05-29T10:05:46.753Z,99.99
2018-05-29T10:06:46.769Z,99.99
2018-05-29T10:07:46.783Z,99.99
2018-05-29T10:08:46.805Z,72.08
2018-05-29T10:09:46.814Z,99.99
2018-05-29T10:10:46.833Z,99.99
2018-05-29T10:11:46.845Z,99.99
2018-05-29T10:12:46.864Z,95.46
2018-05-29T10:13:46.886Z,98.33
2018-05-29T10:14:46.893Z,99.99
2018-05-29T10:15:46.910Z,99.99
2018-05-29T10:16:46.926Z,84.08
2018-05-29T10:17:46.944Z,99.99
2018-05-29T10:18:46.956Z,99.99
2018-05-29T10:19:46.979Z,99.99
2018-05-29T10:20:46.993Z,99.99
2018-05-29T10:21:47.005Z,99.99
2018-05-29T10:22:47.018Z,99.99
2018-05-29T10:23:47.037Z,99.99
2018-05-29T10:24:47.052Z,99.99
2018-05-29T10:25:47.072Z,99.99
2018-05-29T10:26:47.083Z,99.99
2018-05-29T10:27:47.098Z,99.99
2018-05-29T10:28:47.116Z,99.99
2018-05-29T10:29:47.136Z,99.99
2018-05-29T10:30:47.147Z,99.99
2018-05-29T10:31:47.165Z,99.99
2018-05-29T10:32:47.180Z,99.99
2018-05-29T10:33:47.195Z,99.99
2018-05-29T10:34:47.214Z,99.99
2018-05-29T10:35:47.227Z,99.99
2018-05-29T10:36:47.247Z,99.99
2018-05-29T10:37:47.265Z,99.99
2018-05-29T10:38:47.278Z,99.99
2018-05-29T10:39:47.303Z,99.99
2018-05-29T10:40:47.309Z,99.99
2018-05-29T10:41:47.329Z,99.99
2018-05-29T10:42:47.348Z,99.99
2018-05-29T10:43:47.360Z,99.99
2018-05-29T10:44:47.379Z,99.99
2018-05-29T10:45:47.398Z,99.99
2018-05-29T10:46:47.409Z,99.99
2018-05-29T10:47:47.426Z,99.99
2018-05-29T10:48:47.446Z,99.99
2018-05-29T10:49:47.466Z,99.99
2018-05-29T10:50:47.476Z,99.99
2018-05-29T10:51:47.493Z,99.99
2018-05-29T10:52:47.509Z,99.99
2018-05-29T10:53:47.525Z,99.99
2018-05-29T10:54:47.541Z,99.99
2018-05-29T10:55:47.559Z,99.99
2018-05-29T10:56:47.575Z,99.99
2018-05-29T10:57:47.593Z,99.99
2018-05-29T10:58:47.609Z,99.99
2018-05-29T10:59:47.624Z,99.99
2018-05-29T11:00:47.643Z,99.99
2018-05-29T11:01:47.658Z,99.99
2018-05-29T11:02:47.675Z,99.99
2018-05-29T11:03:47.696Z,99.99
2018-05-29T11:04:47.707Z,99.99
2018-05-29T11:05:47.725Z,99.99
2018-05-29T11:06:47.755Z,83.38
2018-05-29T11:07:47.759Z,81.33
2018-05-29T11:08:47.775Z,87.32
2018-05-29T11:09:47.795Z,90.77
2018-05-29T11:10:47.810Z,99.99
2018-05-29T11:11:47.827Z,99.99
2018-05-29T11:12:47.845Z,99.99
2018-05-29T11:13:47.860Z,98.66
2018-05-29T11:14:47.878Z,99.99
2018-05-29T11:15:47.894Z,99.99
2018-05-29T11:16:47.911Z,99.99
2018-05-29T11:17:47.929Z,99.99
2018-05-29T11:18:47.945Z,99.99
2018-05-29T11:19:47.966Z,96.03
2018-05-29T11:20:47.980Z,99.99
2018-05-29T11:21:47.998Z,99.99
2018-05-29T11:22:48.012Z,99.99
2018-05-29T11:23:48.031Z,99.99
2018-05-29T11:24:48.048Z,99.99
2018-05-29T11:25:48.063Z,99.99
2018-05-29T11:26:48.080Z,99.99
2018-05-29T11:27:48.109Z,99.99
2018-05-29T11:28:48.116Z,99.99
2018-05-29T11:29:48.133Z,99.99
2018-05-29T11:30:48.150Z,99.99
2018-05-29T11:31:48.165Z,99.99
2018-05-29T11:32:48.185Z,99.99
2018-05-29T11:33:48.200Z,99.99
2018-05-29T11:34:48.219Z,99.99
2018-05-29T11:35:48.234Z,99.99
2018-05-29T11:36:48.254Z,99.99
2018-05-29T11:37:48.268Z,99.99
2018-05-29T11:38:48.286Z,99.99
2018-05-29T11:39:48.302Z,99.99
2018-05-29T11:40:48.319Z,99.99
2018-05-29T11:41:48.338Z,99.99
2018-05-29T11:42:48.353Z,99.99
2018-05-29T11:43:48.371Z,99.99
2018-05-29T11:44:48.387Z,99.99
2018-05-29T11:45:48.404Z,99.99
2018-05-29T11:46:48.421Z,99.99
2018-05-29T11:47:48.436Z,99.99
2018-05-29T11:48:48.454Z,99.99
2018-05-29T11:49:48.472Z,99.99
2018-05-29T11:50:48.486Z,99.99
2018-05-29T11:51:48.505Z,99.99
2018-05-29T11:52:48.522Z,99.99
2018-05-29T11:53:48.538Z,99.99
2018-05-29T11:54:48.556Z,99.99
2018-05-29T11:55:48.570Z,99.99
2018-05-29T11:56:48.588Z,99.99
2018-05-29T11:57:48.603Z,99.99
2018-05-29T11:58:48.621Z,99.99
2018-05-29T11:59:48.636Z,99.99
2018-05-29T12:00:48.655Z,99.99
2018-05-29T12:01:48.756Z,99.99
2018-05-29T12:02:48.684Z,99.99
2018-05-29T12:03:48.703Z,99.99
2018-05-29T12:04:48.720Z,99.99
2018-05-29T12:05:48.735Z,99.99
2018-05-29T12:06:48.750Z,99.99
2018-05-29T12:07:48.767Z,99.99
2018-05-29T12:08:48.785Z,99.99
2018-05-29T12:09:48.801Z,99.99
2018-05-29T12:10:48.817Z,99.99
2018-05-29T12:11:48.833Z,99.99
2018-05-29T12:12:48.853Z,99.99
2018-05-29T12:13:48.868Z,99.99
2018-05-29T12:14:48.887Z,99.99
2018-05-29T12:15:48.900Z,99.99
2018-05-29T12:16:48.963Z,99.99
2018-05-29T12:17:48.936Z,99.99
2018-05-29T12:18:48.950Z,99.99
2018-05-29T12:19:48.969Z,99.99
2018-05-29T12:20:48.983Z,99.99
2018-05-29T12:21:49.001Z,99.99
2018-05-29T12:22:49.019Z,99.99
2018-05-29T12:23:49.035Z,99.99
2018-05-29T12:24:49.051Z,99.99
2018-05-29T12:25:49.067Z,99.99
2018-05-29T12:26:49.084Z,99.99
2018-05-29T12:27:49.100Z,99.99
2018-05-29T12:28:49.118Z,99.99
2018-05-29T12:29:49.131Z,99.99
2018-05-29T12:30:49.148Z,99.99
2018-05-29T12:31:49.165Z,99.99
2018-05-29T12:32:49.181Z,99.99
2018-05-29T12:33:49.195Z,99.99
2018-05-29T12:34:49.213Z,99.99
2018-05-29T12:35:49.229Z,99.99
2018-05-29T12:36:49.244Z,99.99
2018-05-29T12:37:49.261Z,99.99
2018-05-29T12:38:49.279Z,99.99
2018-05-29T12:39:49.294Z,99.99
2018-05-29T12:40:49.311Z,99.99
2018-05-29T12:41:49.328Z,99.99
2018-05-29T12:42:49.342Z,99.99
2018-05-29T12:43:49.359Z,99.99
2018-05-29T12:44:49.375Z,99.99
2018-05-29T12:45:49.403Z,99.99
2018-05-29T12:46:49.406Z,99.99
2018-05-29T12:47:49.424Z,99.99
2018-05-29T12:48:49.438Z,99.99
2018-05-29T12:49:49.457Z,99.99
2018-05-29T12:50:49.472Z,99.99
2018-05-29T12:51:49.485Z,99.99
2018-05-29T12:52:49.503Z,99.99
2018-05-29T12:53:49.519Z,99.99